Time;durP1;ratioP1;P1;durP2;ratioP2;P2;SDS_P1;SDS_P2;PMS_P1;PMS_P2;Temp;Humidity;BMP_temperature;BMP_pressure;BME280_temperature;BME280_humidity;BME280_pressure;Samples;Min_cycle;Max_cycle;Signal;HPM_P1;HPM_P2
2022/05/21 00:02:15;;;;;;;;;;;17.70;99.90;;;;;;5075384;28;19900;-78
2022/05/21 00:04:41;;;;;;;;;;;17.80;99.90;;;;;;5074907;28;19960;-78
2022/05/21 00:07:08;;;;;;;;;;;17.80;99.90;;;;;;5073556;28;19905;-79
2022/05/21 00:09:33;;;;;;;;;;;17.90;99.90;;;;;;5075025;28;19957;-83
2022/05/21 00:11:59;;;;;;;;;;;17.90;99.90;;;;;;5073592;28;19905;-79
2022/05/21 00:14:24;;;;;;;;;;;17.90;99.90;;;;;;5074554;28;20272;-79
2022/05/21 00:16:50;;;;;;;;;;;18.00;99.90;;;;;;5073543;28;20062;-78
2022/05/21 00:19:16;;;;;;;;;;;18.00;99.90;;;;;;5073208;28;19981;-88
2022/05/21 00:21:41;;;;;;;;;;;18.00;99.90;;;;;;5074508;28;19916;-79
2022/05/21 00:24:07;;;;;;;;;;;18.10;99.90;;;;;;5074240;28;19912;-78
2022/05/21 00:26:33;;;;;;;;;;;18.10;99.90;;;;;;5074298;28;19905;-78
2022/05/21 00:28:58;;;;;;;;;;;18.90;99.90;;;;;;5073420;28;19950;-79
2022/05/21 00:31:24;;;;;;;;;;;19.80;99.20;;;;;;5074835;28;20266;-79
2022/05/21 00:33:49;;;;;;;;;;;20.60;94.90;;;;;;5073126;28;19904;-78
2022/05/21 00:36:15;;;;;;;;;;;21.20;91.90;;;;;;5074128;28;19904;-81
2022/05/21 00:38:41;;;;;;;;;;;21.70;90.00;;;;;;5074098;28;20383;-77
2022/05/21 00:41:08;;;;;;;;;;;21.80;89.60;;;;;;5074486;28;20333;-78
2022/05/21 00:43:43;;;;;;;;;;;21.90;90.40;;;;;;5072797;28;20276;-77
2022/05/21 00:46:14;;;;;;;;;;;21.80;90.90;;;;;;5073976;28;20291;-79
2022/05/21 00:48:40;;;;;;;;;;;21.70;91.80;;;;;;5074048;28;19949;-78
2022/05/21 00:51:07;;;;;;;;;;;21.40;92.90;;;;;;5074214;28;19928;-78
2022/05/21 00:53:33;;;;;;;;;;;21.30;93.50;;;;;;5073899;28;19989;-78
2022/05/21 00:55:59;;;;;;;;;;;21.20;93.90;;;;;;5074130;28;20339;-79
2022/05/21 01:01:12;;;;;;;;;;;21.10;94.60;;;;;;5074503;28;20402;-79
2022/05/21 01:03:37;;;;;;;;;;;21.10;95.30;;;;;;5072609;28;20351;-79
2022/05/21 01:06:03;;;;;;;;;;;20.90;95.40;;;;;;5073791;28;19919;-78
2022/05/21 01:08:29;;;;;;;;;;;21.00;94.40;;;;;;5072189;28;19908;-78
2022/05/21 01:10:57;;;;;;;;;;;21.10;93.40;;;;;;5073234;28;20367;-78
2022/05/21 01:13:24;;;;;;;;;;;21.20;93.00;;;;;;5071989;28;19904;-78
2022/05/21 01:15:53;;;;;;;;;;;21.20;92.90;;;;;;5072928;28;19908;-78
2022/05/21 01:18:19;;;;;;;;;;;21.10;92.70;;;;;;5071869;28;19905;-78
2022/05/21 01:20:47;;;;;;;;;;;21.10;91.90;;;;;;5072861;28;20651;-78
2022/05/21 01:23:14;;;;;;;;;;;21.20;90.80;;;;;;5072841;28;20002;-77
2022/05/21 01:25:40;;;;;;;;;;;21.40;88.90;;;;;;5073170;28;19965;-78
2022/05/21 01:28:08;;;;;;;;;;;21.60;88.70;;;;;;5072992;28;19915;-78
2022/05/21 01:30:36;;;;;;;;;;;21.70;86.70;;;;;;5071722;28;19909;-78
2022/05/21 01:33:04;;;;;;;;;;;21.80;85.50;;;;;;5071619;28;20424;-78
2022/05/21 01:35:29;;;;;;;;;;;21.80;85.00;;;;;;5073005;28;19904;-78
2022/05/21 01:37:55;;;;;;;;;;;21.90;84.30;;;;;;5072686;28;19970;-77
2022/05/21 01:40:20;;;;;;;;;;;21.90;84.30;;;;;;5072756;28;19912;-78
2022/05/21 01:44:37;;;;;;;;;;;21.90;84.90;;;;;;5072775;28;20371;-78
2022/05/21 01:45:35;;;;;;;;;;;21.90;85.20;;;;;;5072245;28;19952;-78
2022/05/21 01:48:02;;;;;;;;;;;21.80;86.00;;;;;;5071494;28;20275;-77
2022/05/21 01:50:27;;;;;;;;;;;21.80;86.80;;;;;;5071686;28;19926;-77
2022/05/21 01:52:53;;;;;;;;;;;21.70;86.30;;;;;;5071378;28;19904;-77
2022/05/21 01:55:18;;;;;;;;;;;21.70;87.30;;;;;;5072834;28;19908;-77
2022/05/21 01:57:44;;;;;;;;;;;21.60;87.80;;;;;;5072518;28;19969;-77
2022/05/21 02:00:10;;;;;;;;;;;21.50;88.80;;;;;;5072479;28;19909;-77
2022/05/21 02:02:35;;;;;;;;;;;21.40;89.60;;;;;;5071270;28;19904;-78
2022/05/21 02:05:01;;;;;;;;;;;21.30;90.00;;;;;;5072346;28;20689;-77
2022/05/21 02:07:27;;;;;;;;;;;21.20;90.10;;;;;;5072485;28;19908;-77
2022/05/21 02:09:52;;;;;;;;;;;21.20;90.40;;;;;;5072367;28;20007;-77
2022/05/21 02:12:18;;;;;;;;;;;21.10;91.10;;;;;;5072331;28;19905;-77
2022/05/21 02:14:44;;;;;;;;;;;21.00;91.40;;;;;;5071011;28;19909;-77
2022/05/21 02:17:09;;;;;;;;;;;21.00;94.00;;;;;;5072269;28;19991;-78
2022/05/21 02:19:35;;;;;;;;;;;20.90;92.00;;;;;;5072412;28;19904;-77
2022/05/21 02:22:00;;;;;;;;;;;20.70;92.60;;;;;;5072349;28;19904;-77
2022/05/21 02:24:26;;;;;;;;;;;20.70;92.50;;;;;;5072154;28;19947;-78
2022/05/21 02:26:51;;;;;;;;;;;20.70;92.30;;;;;;5070831;28;19904;-77
2022/05/21 02:29:18;;;;;;;;;;;20.70;91.30;;;;;;5072393;28;19927;-78
2022/05/21 02:31:44;;;;;;;;;;;20.90;90.40;;;;;;5072426;28;20315;-77
2022/05/21 02:34:09;;;;;;;;;;;21.10;90.90;;;;;;5072262;28;19915;-78
2022/05/21 02:39:25;;;;;;;;;;;21.10;90.10;;;;;;5072173;28;20259;-77
2022/05/21 02:41:51;;;;;;;;;;;21.10;90.10;;;;;;5072133;28;20331;-78
2022/05/21 02:44:16;;;;;;;;;;;21.10;90.20;;;;;;5071917;28;20005;-77
2022/05/21 02:46:42;;;;;;;;;;;21.10;90.20;;;;;;5071958;28;20437;-78
2022/05/21 02:49:07;;;;;;;;;;;21.10;90.20;;;;;;5071794;28;19943;-78
2022/05/21 02:51:32;;;;;;;;;;;21.00;90.40;;;;;;5071973;28;19911;-77
2022/05/21 02:53:58;;;;;;;;;;;21.00;90.80;;;;;;5071881;28;20340;-77
2022/05/21 02:56:23;;;;;;;;;;;20.90;90.90;;;;;;5071775;28;19904;-78
2022/05/21 02:58:49;;;;;;;;;;;20.90;91.10;;;;;;5071864;28;19912;-77
2022/05/21 03:01:14;;;;;;;;;;;20.90;91.00;;;;;;5072904;28;19974;-78
2022/05/21 03:03:40;;;;;;;;;;;20.80;91.10;;;;;;5075739;28;19915;-77
2022/05/21 03:06:06;;;;;;;;;;;20.90;90.90;;;;;;5075654;28;20011;-78
2022/05/21 03:11:16;;;;;;;;;;;20.80;91.30;;;;;;5075804;28;19962;-78
2022/05/21 03:13:41;;;;;;;;;;;20.80;91.70;;;;;;5075560;28;19908;-78
2022/05/21 03:16:07;;;;;;;;;;;20.70;92.20;;;;;;5074095;28;19927;-78
2022/05/21 03:18:32;;;;;;;;;;;20.60;92.60;;;;;;5075367;28;19995;-78
2022/05/21 03:20:58;;;;;;;;;;;20.50;92.90;;;;;;5075557;28;19904;-78
2022/05/21 03:23:23;;;;;;;;;;;20.50;93.40;;;;;;5075413;28;19904;-77
2022/05/21 03:25:49;;;;;;;;;;;20.50;93.70;;;;;;5075273;28;19919;-78
2022/05/21 03:28:16;;;;;;;;;;;20.50;93.50;;;;;;5073989;28;20255;-78
2022/05/21 03:30:42;;;;;;;;;;;20.40;93.30;;;;;;5075388;28;19904;-78
2022/05/21 03:33:07;;;;;;;;;;;20.40;93.00;;;;;;5075358;28;20369;-78
2022/05/21 03:35:33;;;;;;;;;;;20.60;92.40;;;;;;5075147;28;19973;-77
2022/05/21 03:37:59;;;;;;;;;;;20.70;92.50;;;;;;5074923;28;19916;-78
2022/05/21 03:40:25;;;;;;;;;;;20.70;92.50;;;;;;5075161;28;19934;-78
2022/05/21 03:42:51;;;;;;;;;;;20.80;92.30;;;;;;5075085;28;20267;-78
2022/05/21 03:45:16;;;;;;;;;;;20.80;91.90;;;;;;5074965;28;19916;-78
2022/05/21 03:47:42;;;;;;;;;;;20.90;91.80;;;;;;5074890;28;20008;-77
2022/05/21 03:50:11;;;;;;;;;;;21.00;91.60;;;;;;5075011;28;19915;-78
2022/05/21 03:52:37;;;;;;;;;;;21.00;91.40;;;;;;5074984;28;19965;-77
2022/05/21 03:55:03;;;;;;;;;;;21.00;91.80;;;;;;5074892;28;20355;-78
2022/05/21 03:57:28;;;;;;;;;;;21.00;92.40;;;;;;5074626;28;19915;-78
2022/05/21 03:59:57;;;;;;;;;;;21.00;92.20;;;;;;5074760;28;19904;-78
2022/05/21 04:02:23;;;;;;;;;;;21.00;91.90;;;;;;5074700;28;20010;-78
2022/05/21 04:04:48;;;;;;;;;;;21.00;92.00;;;;;;5074657;28;19916;-78
2022/05/21 04:07:14;;;;;;;;;;;21.00;92.30;;;;;;5073288;28;19904;-78
2022/05/21 04:09:39;;;;;;;;;;;21.00;92.50;;;;;;5075161;28;20268;-77
2022/05/21 04:12:05;;;;;;;;;;;21.00;92.40;;;;;;5074646;28;19905;-78
2022/05/21 04:14:31;;;;;;;;;;;20.90;92.50;;;;;;5074422;28;20367;-78
2022/05/21 04:17:00;;;;;;;;;;;20.80;92.80;;;;;;5074511;28;20351;-80
2022/05/21 04:19:26;;;;;;;;;;;20.80;93.20;;;;;;5074984;28;19911;-79
2022/05/21 04:21:52;;;;;;;;;;;20.80;93.30;;;;;;5074834;28;19904;-84
2022/05/21 04:24:18;;;;;;;;;;;20.70;94.00;;;;;;5073250;28;20018;-77
2022/05/21 04:26:44;;;;;;;;;;;20.70;94.20;;;;;;5074601;28;20005;-78
2022/05/21 04:29:10;;;;;;;;;;;20.60;94.70;;;;;;5073369;28;19924;-79
2022/05/21 04:31:35;;;;;;;;;;;20.60;95.20;;;;;;5073362;28;20348;-79
2022/05/21 04:34:01;;;;;;;;;;;20.60;95.20;;;;;;5072639;28;20010;-78
2022/05/21 04:36:27;;;;;;;;;;;20.60;95.30;;;;;;5073987;28;20351;-77
2022/05/21 04:38:53;;;;;;;;;;;20.60;96.00;;;;;;5073768;28;20364;-78
2022/05/21 04:41:20;;;;;;;;;;;20.50;96.60;;;;;;5073812;28;19919;-77
2022/05/21 04:43:46;;;;;;;;;;;20.50;97.30;;;;;;5073900;28;19908;-78
2022/05/21 04:46:11;;;;;;;;;;;20.50;97.70;;;;;;5073831;28;20011;-78
2022/05/21 04:48:37;;;;;;;;;;;20.50;97.90;;;;;;5073851;28;19975;-78
2022/05/21 04:51:04;;;;;;;;;;;20.50;97.70;;;;;;5073668;28;19900;-78
2022/05/21 04:53:30;;;;;;;;;;;20.60;97.00;;;;;;5073613;28;19909;-78
2022/05/21 04:55:55;;;;;;;;;;;20.60;96.80;;;;;;5072327;28;20429;-78
2022/05/21 04:58:21;;;;;;;;;;;20.70;96.50;;;;;;5073581;28;20026;-77
2022/05/21 05:00:47;;;;;;;;;;;20.70;97.00;;;;;;5073560;28;19905;-78
2022/05/21 05:03:13;;;;;;;;;;;20.70;96.60;;;;;;5073470;28;19908;-78
2022/05/21 05:05:39;;;;;;;;;;;20.70;98.30;;;;;;5073410;28;19916;-78
2022/05/21 05:08:05;;;;;;;;;;;20.80;98.20;;;;;;5073355;28;19947;-78
2022/05/21 05:10:31;;;;;;;;;;;20.80;98.90;;;;;;5073384;28;20736;-79
2022/05/21 05:12:57;;;;;;;;;;;20.80;97.70;;;;;;5074372;28;19917;-81
2022/05/21 05:15:22;;;;;;;;;;;20.80;97.60;;;;;;5073100;28;19904;-79
2022/05/21 05:17:48;;;;;;;;;;;20.80;97.90;;;;;;5072113;28;19967;-79
2022/05/21 05:20:13;;;;;;;;;;;20.80;98.00;;;;;;5073106;28;19912;-80
2022/05/21 05:22:39;;;;;;;;;;;20.90;97.50;;;;;;5071856;28;19905;-80
2022/05/21 05:25:05;;;;;;;;;;;20.90;99.70;;;;;;5071687;28;19927;-80
2022/05/21 05:27:30;;;;;;;;;;;20.90;99.20;;;;;;5071742;28;20002;-79
2022/05/21 05:29:56;;;;;;;;;;;20.80;99.90;;;;;;5072789;28;20008;-81
2022/05/21 05:32:21;;;;;;;;;;;20.70;99.90;;;;;;5077591;28;20244;-82
2022/05/21 05:34:47;;;;;;;;;;;20.60;99.90;;;;;;5073187;28;19901;-78
2022/05/21 05:37:13;;;;;;;;;;;20.60;99.90;;;;;;5072851;28;19921;-78
2022/05/21 05:39:38;;;;;;;;;;;20.50;99.90;;;;;;5073023;28;20276;-80
2022/05/21 05:42:04;;;;;;;;;;;20.40;99.90;;;;;;5072985;28;19916;-78
2022/05/21 05:44:31;;;;;;;;;;;20.30;99.90;;;;;;5074522;28;20261;-78
2022/05/21 05:46:57;;;;;;;;;;;20.30;99.90;;;;;;5082865;28;19928;-77
2022/05/21 05:49:22;;;;;;;;;;;20.20;99.90;;;;;;5075439;28;20339;-77
2022/05/21 05:51:48;;;;;;;;;;;20.20;99.90;;;;;;5073338;28;19908;-78
2022/05/21 05:54:13;;;;;;;;;;;20.20;99.90;;;;;;5073945;28;19905;-78
2022/05/21 05:56:44;;;;;;;;;;;20.20;99.90;;;;;;5073023;28;20935;-78
2022/05/21 06:02:57;;;;;;;;;;;20.30;99.90;;;;;;5073072;28;19912;-78
2022/05/21 06:04:39;;;;;;;;;;;20.30;99.90;;;;;;5072502;28;19912;-79
2022/05/21 06:07:05;;;;;;;;;;;20.10;99.90;;;;;;5072622;28;19908;-78
2022/05/21 06:09:32;;;;;;;;;;;20.10;99.90;;;;;;5072767;28;19919;-78
2022/05/21 06:11:58;;;;;;;;;;;20.00;99.90;;;;;;5072568;28;19961;-79
2022/05/21 06:14:23;;;;;;;;;;;19.90;99.90;;;;;;5072453;28;19904;-78
2022/05/21 06:16:49;;;;;;;;;;;20.00;99.90;;;;;;5072471;28;20343;-78
2022/05/21 06:19:14;;;;;;;;;;;20.10;99.90;;;;;;5072448;28;19908;-78
2022/05/21 06:21:40;;;;;;;;;;;20.10;99.90;;;;;;5070714;28;19912;-78
2022/05/21 06:24:05;;;;;;;;;;;20.10;99.90;;;;;;5072369;28;19912;-78
2022/05/21 06:26:31;;;;;;;;;;;20.20;99.90;;;;;;5072359;28;19909;-78
2022/05/21 06:28:56;;;;;;;;;;;20.30;99.90;;;;;;5072584;28;19904;-77
2022/05/21 06:31:22;;;;;;;;;;;20.30;99.90;;;;;;5072286;28;19987;-78
2022/05/21 06:33:47;;;;;;;;;;;20.40;99.90;;;;;;5072151;28;19957;-78
2022/05/21 06:36:14;;;;;;;;;;;20.50;99.90;;;;;;5073424;28;19904;-78
2022/05/21 06:38:40;;;;;;;;;;;20.60;99.90;;;;;;5076119;28;20356;-78
2022/05/21 06:41:06;;;;;;;;;;;20.60;99.90;;;;;;5075097;28;19909;-77
2022/05/21 06:43:32;;;;;;;;;;;20.80;99.90;;;;;;5076392;28;19912;-78
2022/05/21 06:45:58;;;;;;;;;;;21.00;99.90;;;;;;5076297;28;19970;-78
2022/05/21 06:48:23;;;;;;;;;;;21.00;99.90;;;;;;5074746;28;19957;-78
2022/05/21 06:50:49;;;;;;;;;;;21.00;99.90;;;;;;5075417;28;19911;-79
2022/05/21 06:53:14;;;;;;;;;;;21.00;99.90;;;;;;5074843;28;19905;-78
2022/05/21 06:55:40;;;;;;;;;;;21.00;99.90;;;;;;5075944;28;19911;-78
2022/05/21 06:58:06;;;;;;;;;;;21.10;99.90;;;;;;5074979;28;19901;-78
2022/05/21 07:00:31;;;;;;;;;;;21.20;99.90;;;;;;5076081;28;20017;-78
2022/05/21 07:02:57;;;;;;;;;;;21.30;99.90;;;;;;5076014;28;19943;-78
2022/05/21 07:08:14;;;;;;;;;;;21.60;99.90;;;;;;5075894;28;19920;-78
2022/05/21 07:10:40;;;;;;;;;;;21.80;99.90;;;;;;5074488;28;19983;-78
2022/05/21 07:13:05;;;;;;;;;;;21.90;99.90;;;;;;5075643;28;20374;-78
2022/05/21 07:15:31;;;;;;;;;;;22.10;99.90;;;;;;5076340;28;19954;-80
2022/05/21 07:18:00;;;;;;;;;;;22.30;99.90;;;;;;5075493;28;19905;-79
2022/05/21 07:20:26;;;;;;;;;;;22.60;99.90;;;;;;5075430;28;19904;-78
2022/05/21 07:22:52;;;;;;;;;;;23.70;99.90;;;;;;5075559;28;19905;-78
2022/05/21 07:25:19;;;;;;;;;;;23.00;99.90;;;;;;5074806;28;19952;-78
2022/05/21 07:27:45;;;;;;;;;;;23.10;99.90;;;;;;5075222;28;19911;-78
2022/05/21 07:30:11;;;;;;;;;;;23.30;99.90;;;;;;5075484;28;19904;-78
2022/05/21 07:32:37;;;;;;;;;;;23.40;99.90;;;;;;5075238;28;19905;-79
2022/05/21 07:35:06;;;;;;;;;;;23.50;99.90;;;;;;5075436;28;19958;-78
2022/05/21 07:37:32;;;;;;;;;;;23.60;99.20;;;;;;5074986;28;19916;-78
2022/05/21 07:39:58;;;;;;;;;;;23.70;99.80;;;;;;5075444;28;19915;-78
2022/05/21 07:42:24;;;;;;;;;;;23.80;99.90;;;;;;5075427;28;19908;-78
2022/05/21 07:44:49;;;;;;;;;;;23.80;98.70;;;;;;5075139;28;19917;-79
2022/05/21 07:47:15;;;;;;;;;;;23.90;98.40;;;;;;5074937;28;20336;-78
2022/05/21 07:49:40;;;;;;;;;;;24.00;99.10;;;;;;5075239;28;19904;-77
2022/05/21 07:52:06;;;;;;;;;;;24.00;98.20;;;;;;5075100;28;19999;-78
2022/05/21 07:54:32;;;;;;;;;;;24.00;96.50;;;;;;5075165;28;20269;-78
2022/05/21 07:57:01;;;;;;;;;;;24.00;97.50;;;;;;5074903;28;20433;-78
2022/05/21 07:59:26;;;;;;;;;;;24.00;98.70;;;;;;5075163;28;19908;-78
2022/05/21 08:01:52;;;;;;;;;;;24.10;99.10;;;;;;5075017;28;20003;-79
2022/05/21 08:04:17;;;;;;;;;;;24.30;99.90;;;;;;5074890;28;20401;-78
2022/05/21 08:06:43;;;;;;;;;;;24.30;96.80;;;;;;5074841;28;19904;-78
2022/05/21 08:09:09;;;;;;;;;;;24.40;94.80;;;;;;5073642;28;19935;-78
2022/05/21 08:11:35;;;;;;;;;;;24.50;96.30;;;;;;5074870;28;19930;-78
2022/05/21 08:14:00;;;;;;;;;;;24.70;97.80;;;;;;5074883;28;19909;-78
2022/05/21 08:16:26;;;;;;;;;;;24.80;95.90;;;;;;5073417;28;19908;-78
2022/05/21 08:18:52;;;;;;;;;;;25.00;93.60;;;;;;5074619;28;19987;-78
2022/05/21 08:21:17;;;;;;;;;;;25.10;92.50;;;;;;5074535;28;19955;-78
2022/05/21 08:29:11;;;;;;;;;;;25.50;92.80;;;;;;5074453;28;20317;-78
2022/05/21 08:31:37;;;;;;;;;;;25.70;91.00;;;;;;5074476;28;19908;-78
2022/05/21 08:34:03;;;;;;;;;;;25.80;88.90;;;;;;5074300;28;19908;-78
2022/05/21 08:36:28;;;;;;;;;;;25.50;88.00;;;;;;5074121;28;19958;-77
2022/05/21 08:38:54;;;;;;;;;;;25.40;88.00;;;;;;5074095;28;19962;-78
2022/05/21 08:41:24;;;;;;;;;;;25.50;88.70;;;;;;5074322;28;20263;-77
2022/05/21 08:43:54;;;;;;;;;;;25.70;84.90;;;;;;5074091;28;19911;-78
2022/05/21 08:46:43;;;;;;;;;;;25.80;83.80;;;;;;5074117;28;19955;-78
2022/05/21 08:49:14;;;;;;;;;;;26.00;82.10;;;;;;5052258;28;19909;-77
2022/05/21 08:51:47;;;;;;;;;;;26.20;81.40;;;;;;5073437;28;20263;-77
2022/05/21 08:54:16;;;;;;;;;;;26.30;84.00;;;;;;5073861;28;19952;-80
2022/05/21 08:56:41;;;;;;;;;;;26.60;82.00;;;;;;5073611;28;19942;-79
2022/05/21 08:59:08;;;;;;;;;;;26.70;76.00;;;;;;5072139;28;19969;-77
2022/05/21 09:01:34;;;;;;;;;;;26.60;74.80;;;;;;5073923;28;19920;-79
2022/05/21 09:04:00;;;;;;;;;;;26.70;74.00;;;;;;5073645;28;20409;-78
2022/05/21 09:06:34;;;;;;;;;;;26.60;74.40;;;;;;5073643;28;19912;-77
2022/05/21 09:09:17;;;;;;;;;;;26.60;73.60;;;;;;5073490;28;20302;-76
2022/05/21 09:11:46;;;;;;;;;;;26.60;72.80;;;;;;5073638;28;20316;-76
2022/05/21 09:14:11;;;;;;;;;;;26.60;73.80;;;;;;5073391;28;20340;-78
2022/05/21 09:16:56;;;;;;;;;;;26.60;73.50;;;;;;5073311;28;19911;-76
2022/05/21 09:19:23;;;;;;;;;;;26.50;73.80;;;;;;5073067;28;20352;-76
2022/05/21 09:21:50;;;;;;;;;;;26.70;73.80;;;;;;5073581;28;21178;-78
2022/05/21 09:24:34;;;;;;;;;;;26.90;71.80;;;;;;5073355;28;19908;-76
2022/05/21 09:27:00;;;;;;;;;;;26.80;70.20;;;;;;5073545;28;19915;-76
2022/05/21 09:29:28;;;;;;;;;;;26.80;71.60;;;;;;5072173;28;20400;-76
2022/05/21 09:31:55;;;;;;;;;;;26.80;69.30;;;;;;5073377;28;20343;-78
2022/05/21 09:34:29;;;;;;;;;;;26.80;69.60;;;;;;5075810;28;19909;-78
2022/05/21 09:36:56;;;;;;;;;;;26.90;70.70;;;;;;5071779;28;19923;-78
2022/05/21 09:39:31;;;;;;;;;;;27.00;69.10;;;;;;5073068;28;19904;-78
2022/05/21 09:45:22;;;;;;;;;;;27.10;69.40;;;;;;5073284;28;19907;-78
2022/05/21 09:45:29;;;;;;;;;;;27.20;69.50;;;;;;5072651;28;20007;-78
2022/05/21 09:48:15;;;;;;;;;;;27.30;70.80;;;;;;5071443;28;19947;-79
2022/05/21 09:50:51;;;;;;;;;;;27.30;71.30;;;;;;5066761;28;19908;-80
2022/05/21 09:53:23;;;;;;;;;;;27.20;68.90;;;;;;5073346;28;19908;-77
2022/05/21 09:56:00;;;;;;;;;;;27.30;67.40;;;;;;5072986;28;19951;-77
2022/05/21 09:58:26;;;;;;;;;;;27.60;65.30;;;;;;5073074;28;19908;-77
2022/05/21 10:00:53;;;;;;;;;;;27.70;68.50;;;;;;5072811;28;20042;-77
2022/05/21 10:03:34;;;;;;;;;;;28.00;68.80;;;;;;5076943;28;19919;-77
2022/05/21 10:06:00;;;;;;;;;;;27.90;66.10;;;;;;5072883;28;19919;-78
2022/05/21 10:11:31;;;;;;;;;;;27.90;64.30;;;;;;5072098;28;20275;-83
2022/05/21 10:14:00;;;;;;;;;;;28.00;62.90;;;;;;5072809;28;19904;-77
2022/05/21 10:16:33;;;;;;;;;;;27.80;67.60;;;;;;5073169;28;19901;-85
2022/05/21 10:19:02;;;;;;;;;;;28.00;67.30;;;;;;5071678;28;19994;-77
2022/05/21 10:21:46;;;;;;;;;;;27.80;67.80;;;;;;5072765;28;20253;-78
2022/05/21 10:24:24;;;;;;;;;;;27.80;67.90;;;;;;5072888;28;19983;-79
2022/05/21 10:27:00;;;;;;;;;;;27.90;66.70;;;;;;5072664;28;19931;-82
2022/05/21 10:29:37;;;;;;;;;;;27.80;70.90;;;;;;5072781;28;20006;-78
2022/05/21 10:32:05;;;;;;;;;;;28.00;69.50;;;;;;5072818;28;19915;-79
2022/05/21 10:34:47;;;;;;;;;;;28.10;67.60;;;;;;5072917;28;19936;-79
2022/05/21 10:37:39;;;;;;;;;;;28.30;68.80;;;;;;5072482;28;19927;-78
2022/05/21 10:40:07;;;;;;;;;;;28.50;63.80;;;;;;5070427;28;20435;-78
2022/05/21 10:42:51;;;;;;;;;;;28.70;61.60;;;;;;5072546;28;19905;-78
2022/05/21 10:45:19;;;;;;;;;;;28.90;62.50;;;;;;5072591;28;19916;-77
2022/05/21 10:47:45;;;;;;;;;;;28.90;62.30;;;;;;5072404;28;19959;-78
2022/05/21 10:50:13;;;;;;;;;;;28.90;62.90;;;;;;5072498;28;19939;-78
2022/05/21 10:52:38;;;;;;;;;;;29.00;62.20;;;;;;5072502;28;19911;-78
2022/05/21 10:55:26;;;;;;;;;;;29.00;61.10;;;;;;5072307;28;19912;-79
2022/05/21 10:58:10;;;;;;;;;;;28.90;60.20;;;;;;5072414;28;19908;-79
2022/05/21 11:00:40;;;;;;;;;;;29.00;59.10;;;;;;5072636;28;19911;-78
2022/05/21 11:03:08;;;;;;;;;;;29.20;59.90;;;;;;5072633;28;19908;-79
2022/05/21 11:05:46;;;;;;;;;;;29.30;60.40;;;;;;5072466;28;19913;-79
2022/05/21 11:08:15;;;;;;;;;;;29.50;60.10;;;;;;5071959;28;19911;-79
2022/05/21 11:10:48;;;;;;;;;;;29.70;59.80;;;;;;5070655;28;19962;-79
2022/05/21 11:13:19;;;;;;;;;;;29.70;59.90;;;;;;5071990;28;19952;-78
2022/05/21 11:16:03;;;;;;;;;;;29.50;59.80;;;;;;5071884;28;19908;-79
2022/05/21 11:18:44;;;;;;;;;;;29.40;60.30;;;;;;5071764;28;19910;-79
2022/05/21 11:21:13;;;;;;;;;;;29.30;61.80;;;;;;5071862;28;19905;-78
2022/05/21 11:23:58;;;;;;;;;;;29.30;62.70;;;;;;5073646;28;19913;-79
2022/05/21 11:26:29;;;;;;;;;;;29.20;62.00;;;;;;5075466;28;19965;-78
2022/05/21 11:29:11;;;;;;;;;;;29.20;59.50;;;;;;5075398;28;20362;-79
2022/05/21 11:37:21;;;;;;;;;;;29.30;61.20;;;;;;5075103;28;19923;-79
2022/05/21 11:39:50;;;;;;;;;;;29.40;60.30;;;;;;5075268;28;19915;-78
2022/05/21 11:42:18;;;;;;;;;;;29.40;58.70;;;;;;5075308;28;19995;-78
2022/05/21 11:44:55;;;;;;;;;;;28.90;58.10;;;;;;5075173;28;20418;-78
2022/05/21 11:47:21;;;;;;;;;;;28.80;60.10;;;;;;5074834;28;19958;-78
2022/05/21 11:49:56;;;;;;;;;;;28.70;58.90;;;;;;5073616;28;20470;-78
2022/05/21 11:52:27;;;;;;;;;;;28.70;60.80;;;;;;5075002;28;19905;-78
2022/05/21 11:54:53;;;;;;;;;;;28.70;58.70;;;;;;5074901;28;20003;-79
2022/05/21 11:57:33;;;;;;;;;;;28.70;58.10;;;;;;5074755;28;19990;-78
2022/05/21 12:00:00;;;;;;;;;;;28.80;56.90;;;;;;5073449;28;19943;-78
2022/05/21 12:02:27;;;;;;;;;;;29.00;57.90;;;;;;5073537;28;19999;-78
2022/05/21 12:04:57;;;;;;;;;;;29.00;56.90;;;;;;5074544;28;19920;-78
2022/05/21 12:07:41;;;;;;;;;;;29.20;57.90;;;;;;5073077;28;19908;-78
2022/05/21 12:10:16;;;;;;;;;;;29.40;58.00;;;;;;5074003;28;20228;-78
2022/05/21 12:13:01;;;;;;;;;;;29.60;55.70;;;;;;5074579;28;19904;-78
2022/05/21 12:15:35;;;;;;;;;;;29.90;56.10;;;;;;5074743;28;20363;-81
2022/05/21 12:18:03;;;;;;;;;;;30.20;54.70;;;;;;5074571;28;20347;-82
2022/05/21 12:20:38;;;;;;;;;;;30.30;53.10;;;;;;5074730;28;19908;-78
2022/05/21 12:23:03;;;;;;;;;;;30.30;53.10;;;;;;5074545;28;19908;-78
2022/05/21 12:25:52;;;;;;;;;;;30.40;51.30;;;;;;5074467;28;20007;-78
2022/05/21 12:28:18;;;;;;;;;;;30.40;49.10;;;;;;5068837;28;20406;-78
2022/05/21 12:30:43;;;;;;;;;;;30.30;50.30;;;;;;5074461;28;19987;-78
2022/05/21 12:33:22;;;;;;;;;;;30.30;48.70;;;;;;5074179;28;20268;-79
2022/05/21 12:36:05;;;;;;;;;;;30.40;49.20;;;;;;5072771;28;19904;-78
2022/05/21 12:38:32;;;;;;;;;;;30.50;48.20;;;;;;5072701;28;19920;-79
2022/05/21 12:40:59;;;;;;;;;;;30.40;48.50;;;;;;5074270;28;20054;-78
2022/05/21 12:43:25;;;;;;;;;;;30.40;49.20;;;;;;5073093;28;19957;-78
2022/05/21 12:45:52;;;;;;;;;;;30.70;49.50;;;;;;5074148;28;20388;-78
2022/05/21 12:48:17;;;;;;;;;;;30.80;48.20;;;;;;5074287;28;19911;-78
2022/05/21 12:51:00;;;;;;;;;;;30.90;48.90;;;;;;5072841;28;19904;-79
2022/05/21 12:53:35;;;;;;;;;;;31.00;49.60;;;;;;5073847;28;20379;-78
2022/05/21 12:56:02;;;;;;;;;;;30.90;49.90;;;;;;5074035;28;20050;-78
2022/05/21 12:58:28;;;;;;;;;;;30.70;51.50;;;;;;5072688;28;20041;-80
2022/05/21 13:00:55;;;;;;;;;;;30.30;52.20;;;;;;5073965;28;19962;-81
2022/05/21 13:03:22;;;;;;;;;;;30.20;52.90;;;;;;5073544;28;19905;-80
2022/05/21 13:05:53;;;;;;;;;;;30.10;53.10;;;;;;5073503;28;20390;-79
2022/05/21 13:08:19;;;;;;;;;;;29.80;52.00;;;;;;5071986;28;19958;-79
2022/05/21 13:11:00;;;;;;;;;;;29.80;52.60;;;;;;5072328;28;20314;-81
2022/05/21 13:13:26;;;;;;;;;;;29.80;52.70;;;;;;5073621;28;19905;-80
2022/05/21 13:15:55;;;;;;;;;;;30.00;52.20;;;;;;5073325;28;19916;-79
2022/05/21 13:18:27;;;;;;;;;;;30.00;51.70;;;;;;5073163;28;19904;-80
2022/05/21 13:21:11;;;;;;;;;;;29.90;49.20;;;;;;5073227;28;20370;-79
2022/05/21 13:23:55;;;;;;;;;;;29.80;50.10;;;;;;5073249;28;19974;-79
2022/05/21 13:26:21;;;;;;;;;;;29.80;50.40;;;;;;5072874;28;20425;-80
2022/05/21 13:28:47;;;;;;;;;;;29.80;50.90;;;;;;5072818;28;20370;-79
2022/05/21 13:31:21;;;;;;;;;;;29.70;48.90;;;;;;5073132;28;19904;-80
2022/05/21 13:33:50;;;;;;;;;;;29.60;48.50;;;;;;5071811;28;20382;-80
2022/05/21 13:36:18;;;;;;;;;;;29.40;49.30;;;;;;5071920;28;20343;-81
2022/05/21 13:38:44;;;;;;;;;;;29.40;49.70;;;;;;5073146;28;19920;-77
2022/05/21 13:41:12;;;;;;;;;;;29.30;50.50;;;;;;5072627;28;19904;-79
2022/05/21 13:43:42;;;;;;;;;;;29.10;50.20;;;;;;5072679;28;20356;-79
2022/05/21 13:46:08;;;;;;;;;;;29.00;50.40;;;;;;5071791;28;20298;-81
2022/05/21 13:48:43;;;;;;;;;;;28.90;50.80;;;;;;5073624;28;19915;-85
2022/05/21 13:51:10;;;;;;;;;;;28.90;51.20;;;;;;5074140;28;19915;-82
2022/05/21 13:53:35;;;;;;;;;;;28.80;52.10;;;;;;5073682;28;19927;-80
2022/05/21 13:56:05;;;;;;;;;;;28.80;51.40;;;;;;5073314;28;20356;-83
2022/05/21 13:58:35;;;;;;;;;;;28.70;51.90;;;;;;5073733;28;19904;-84
2022/05/21 14:01:02;;;;;;;;;;;28.70;51.00;;;;;;5073499;28;20003;-79
2022/05/21 14:03:40;;;;;;;;;;;28.60;51.90;;;;;;5072232;28;19904;-82
2022/05/21 14:06:13;;;;;;;;;;;28.50;50.70;;;;;;5073395;28;19937;-78
2022/05/21 14:08:38;;;;;;;;;;;28.50;51.40;;;;;;5072142;28;19911;-80
2022/05/21 14:11:05;;;;;;;;;;;28.50;51.30;;;;;;5073725;28;19909;-84
2022/05/21 14:13:34;;;;;;;;;;;28.50;50.60;;;;;;5072577;28;19904;-80
2022/05/21 14:16:07;;;;;;;;;;;28.60;51.80;;;;;;5073781;28;19928;-91
2022/05/21 14:18:35;;;;;;;;;;;28.60;49.80;;;;;;5074028;28;19930;-81
2022/05/21 14:21:03;;;;;;;;;;;28.60;51.20;;;;;;5072943;28;19987;-80
2022/05/21 14:23:30;;;;;;;;;;;28.50;51.70;;;;;;5073179;28;19908;-82
2022/05/21 14:26:31;;;;;;;;;;;28.40;53.10;;;;;;5072341;28;19916;-79
2022/05/21 14:28:57;;;;;;;;;;;28.30;51.70;;;;;;5049353;28;19904;-79
2022/05/21 14:31:39;;;;;;;;;;;28.20;54.10;;;;;;5071641;28;19974;-79
2022/05/21 14:34:17;;;;;;;;;;;28.20;52.40;;;;;;5072023;28;19904;-79
2022/05/21 14:36:44;;;;;;;;;;;28.10;51.70;;;;;;5071806;28;19911;-79
2022/05/21 14:39:13;;;;;;;;;;;28.20;51.60;;;;;;5070819;28;19904;-78
2022/05/21 14:41:40;;;;;;;;;;;28.10;51.90;;;;;;5070720;28;19912;-79
2022/05/21 14:44:26;;;;;;;;;;;28.20;52.40;;;;;;5072239;28;19947;-78
2022/05/21 14:49:36;;;;;;;;;;;28.20;51.20;;;;;;5072426;28;19915;-80
2022/05/21 14:54:47;;;;;;;;;;;28.00;50.60;;;;;;5072442;28;19916;-79
2022/05/21 14:57:14;;;;;;;;;;;28.00;50.10;;;;;;5071528;28;19905;-79
2022/05/21 14:59:39;;;;;;;;;;;27.90;51.00;;;;;;5076117;28;19905;-80